Tiempo atmosférico en la estación meteorológica de Salamanca Aeropuerto, Salamanca (790 m.)



Fecha
DESCASC
Temp. máxima en grados centígrados (hora)
DESCASC
Temp. mínima en grados centígrados (hora)
DESCASC
Temp. media en grados centígrados
DESCASC
Racha de viento máxima en m/sg (hora)
DESCASC
Velocidad máxima media en intervalos de 10 minutos(hora)
DESCASC
Precipitaciones diarias en mm
DESCASC
Precipitaciones de 00:00 a 06:00 en mm
DESCASC
Precipitaciones de 06:00 a 12:00 en mm
DESCASC
Precipitaciones de 12:00 a 18:00 en mm
DESCASC
Precipitaciones de 18:00 a 24:00 en mm
DESCASC
22-01-2020 9.3 (15:10) 1.7 (09:40) 5.5 13.89 (02:30) 9.72 (02:30) 0 0 0 0 0
21-01-2020 5.1 (15:30) -6.2 (06:10) -0.5 16.11 (17:00) 11.67 (16:50) 0.1 0 0.1 0 0
20-01-2020 3.7 (15:20) -2 (08:50) 0.9 16.39 (11:20) 11.67 (11:20) 0 0 0 0 0
19-01-2020 7.4 (14:10) 0.1 (00:00) 3.8 24.17 (13:40) 17.5 (14:20) 1.4 1.4 0 0 0
18-01-2020 13.3 (14:20) 3.2 (00:00) 8.3 16.94 (17:50) 11.67 (13:10) 3.9 1.2 2 0 0.7
17-01-2020 10.5 (15:30) 3.3 (00:00) 6.9 10.28 (15:50) 7.78 (00:40) 0.1 0 0.1 0 0
16-01-2020 11.9 (14:10) 6.7 (00:00) 9.3 15.28 (20:30) 11.39 (23:10) 0 0 0 0 0
15-01-2020 11.1 (15:40) 5.5 (00:00) 8.3 16.11 (07:00) 11.94 (06:40) 2.1 0 2 0.1 0
14-01-2020 9.9 (15:50) -4.6 (-00:0) 2.6 13.89 (15:50) 10.56 (16:40) 0 0 0 0 0
13-01-2020 10.8 (16:00) -5.9 (-00:0) 2.5 6.11 (16:20) 4.72 (16:20) 0 0 0 0 0
12-01-2020 5.2 (14:20) -6.7 (08:00) -0.8 5 (14:40) 3.89 (14:50) 0 0 0 0 0
11-01-2020 5.5 (16:10) -5.7 (-00:0) -0.1 4.17 (00:20) 3.61 (17:40) 0 0 0 0 0
10-01-2020 8.1 (15:20) -5.3 (-00:0) 1.4 8.89 (14:10) 6.11 (14:10) 0 0 0 0 0
09-01-2020 13.4 (15:40) -3.6 (-00:0) 4.9 11.67 (16:50) 7.78 (16:50) 0 0 0 0 0
08-01-2020 11.5 (15:50) -5.9 (-00:0) 2.8 3.61 (14:10) 3.06 (17:00) 0 0 0 0 0
07-01-2020 6.6 (16:40) -3 (-00:0) 1.8 4.17 (14:20) 2.78 (17:10) 0 0 0 0 0
06-01-2020 10.1 (15:50) -3.4 (-00:0) 3.4 4.72 (15:20) 3.61 (21:50) 0 0 0 0 0
05-01-2020 2.6 (15:50) -0.4 (00:00) 1.1 6.11 (02:00) 4.17 (02:10) 0 0 0 0 0
04-01-2020 5.8 (14:50) -2.2 (-00:0) 1.8 9.17 (15:10) 6.94 (15:20) 0 0 0 0 0
03-01-2020 9.8 (14:40) -1.5 (-00:0) 4.2 7.22 (01:40) 4.17 (01:40) 0 0 0 0 0
02-01-2020 15 (15:40) -4.2 (-00:0) 5.4 3.61 (21:30) 3.06 (23:40) -- 0 -- -- 0
01-01-2020 16.8 (16:30) -5.6 (-00:0) 5.6 4.17 (18:20) 3.33 (18:20) 0 0 0 0 0
31-12-2019 13.7 (15:10) -5.7 (-00:0) 4 -- (--) -- (--) 0 0 0 0 0
30-12-2019 14.1 (15:40) -4.7 (-00:0) 4.7 -- (--) -- (--) 0 0 0 0 0
29-12-2019 12.8 (16:30) -5 (-00:0) 3.9 -- (--) -- (--) 0 0 0 0 0
28-12-2019 6 (15:50) -2.5 (-00:0) 1.8 6.67 (16:00) 4.72 (16:10) 0 0 0 0 0
27-12-2019 3 (14:20) 0.2 (00:00) 1.6 5.83 (04:10) 4.17 (04:10) 0 0 0 0 0

Gráficas

Temp. máximas Temp. mínimas Temp. medias Precipitaciones Rachas de viento máximas Velocidades máximas media en intervalos de 10 minutos

Datos horarios

Fecha y hora oficial Temperatura (ºC) Velocidad del viento (km/h) Dirección del viento Racha (km/h) Dirección de racha Precipitación (mm) Presión (hPa) Tendencia (hPa) Humedad (%)
2020-01-25 23:00:00 4.1 0 Calma -- -- -- 926.5 1.4 97
2020-01-25 22:00:00 4.7 0 Calma -- -- 0 926.1 1.7 96
2020-01-25 21:00:00 5.3 0 Calma 5 Oeste 0 925.6 1.8 95
2020-01-25 20:00:00 5.7 3 Noroeste 9 Noroeste 0 925.1 1.7 93
2020-01-25 19:00:00 6 8 Noroeste 21 Noroeste 0 924.4 1.3 92
2020-01-25 18:00:00 7.2 10 Noroeste 17 Noroeste 0 923.8 0.4 88
2020-01-25 17:00:00 7.4 11 Norte 15 Norte 0 923.4 -0.4 85
2020-01-25 16:00:00 7.6 9 Noroeste 13 Noroeste 0 923.1 -1.2 84
2020-01-25 15:00:00 8.2 6 Noroeste 11 Noroeste 0 923.4 -1.5 80
2020-01-25 14:00:00 8.1 3 Oeste 9 Este 0 923.8 -0.7 81
2020-01-25 13:00:00 7.1 3 Este 11 Este 0.4 924.3 0.1 93
2020-01-25 12:00:00 5.4 9 Este 13 Este 0.2 924.9 1.4 94
2020-01-25 11:00:00 4.9 9 Este 11 Este 0.3 924.5 1.5 95
2020-01-25 10:00:00 4.4 4 Este 17 Este 0.5 924.2 1.5 94
2020-01-25 09:00:00 4.3 13 Este 21 Este 0.1 923.5 0.6 94
2020-01-25 08:00:00 4.4 14 Este 18 Este 0 923 -0.2 94
2020-01-25 07:00:00 4.2 13 Este 18 Este 0 922.7 -1 97
2020-01-25 06:00:00 1.7 0 Calma -- -- 0.2 922.9 -1.2 97
2020-01-25 05:00:00 0.8 2 Noroeste 11 Este 0 923.2 -1.4 95
2020-01-25 04:00:00 1.3 3 Este 13 Este 0 923.7 -1.5 97
2020-01-25 03:00:00 0.8 3 Este 9 Este 0 924.1 -1.5 97
2020-01-25 02:00:00 1.6 6 Este 11 Nordeste 0 924.6 -1.6 97
2020-01-25 01:00:00 2.9 9 Sudeste 11 Sudeste 0 925.2 -1 96
2020-01-25 00:00:00 4.5 4 Nordeste 8 Este 0 925.6 -0.7 95
2020-01-24 23:00:00 5.2 0 Calma 15 Este 0 926.2 0.2 95
2020-01-24 22:00:00 5.3 9 Este 21 Este 0 926.2 0.3 94
2020-01-24 21:00:00 5.7 10 Nordeste 18 Este 0 926.3 0.6 94
2020-01-24 20:00:00 6.2 15 Este 21 Este 0 926 0.5 89
2020-01-24 19:00:00 7 5 Nordeste 8 Nordeste 0 925.9 0.1 83
2020-01-24 18:00:00 8 6 Norte 9 Norte 0 925.7 -0.4 77
2020-01-24 17:00:00 9.3 0 Calma 13 Nordeste 0 925.5 -1.3 69
2020-01-24 16:00:00 9.2 5 Norte 13 Noroeste 0 925.8 -1.6 74
2020-01-24 15:00:00 7.8 8 Sur 13 Sur 0 926.1 -1.5 81
2020-01-24 14:00:00 8.7 3 Sudoeste 9 Oeste 0 926.8 -0.6 75
2020-01-24 13:00:00 8.1 0 Calma 8 Sudoeste 0 927.4 0.2 81
2020-01-24 12:00:00 7.1 0 Calma 11 Noroeste 0 927.6 0.9 88
2020-01-24 11:00:00 5.4 0 Calma 8 Noroeste 0.2 927.4 0.9 97
2020-01-24 10:00:00 3.5 0 Calma 2 Noroeste 0.1 927.2 1 97
2020-01-24 09:00:00 2.9 0 Calma 8 Este 1.1 926.7 0.6 97
2020-01-24 08:00:00 2.9 5 Sudeste 9 Este 1.9 926.5 0.6 97
2020-01-24 07:00:00 2.9 6 Sur 8 Sur 0.8 926.2 0.2 96
2020-01-24 06:00:00 2.4 0 Calma 5 Oeste 0.5 926.1 0.3 95
2020-01-24 05:00:00 1.9 0 Calma 8 Sudeste 0 925.9 0 95
2020-01-24 04:00:00 1.4 0 Calma 8 Oeste 0 926 -0.1 94
2020-01-24 03:00:00 1.2 0 Calma 5 Oeste 0 925.8 -0.1 94
2020-01-24 02:00:00 2 0 Calma 5 Noroeste 0 925.9 0.1 92
2020-01-24 01:00:00 2.1 0 Calma 9 Oeste 0 926.1 0.6 93
2020-01-24 00:00:00 1.9 4 Oeste 11 Oeste 0 925.9 0.7 91
2020-01-23 23:00:00 3.8 2 Este 13 Sudeste 0 925.8 1.2 87
2020-01-23 22:00:00 3.4 10 Sudeste 15 Este 0 925.5 1.4 87
2020-01-23 21:00:00 3.9 6 Sudeste 22 Sur 0 925.2 1.3 82
2020-01-23 20:00:00 4.3 18 Sudeste 24 Sudeste 0 924.6 1.1 83
2020-01-23 19:00:00 6 14 Sudeste 22 Sur 0 924.1 0.3 76
2020-01-23 18:00:00 7 14 Sudeste 30 Sudeste 0 923.9 0 73
2020-01-23 17:00:00 8.5 22 Sudeste 35 Sudeste 0 923.5 -0.9 67
2020-01-23 16:00:00 8.9 16 Sudeste 24 Sudeste 0 923.8 -1.1 66
2020-01-23 15:00:00 8.7 13 Este 28 Sudeste 0 923.9 -1.6 68
2020-01-23 14:00:00 8.2 20 Sudeste 32 Sudeste 0 924.4 -0.9 69
2020-01-23 13:00:00 7.8 21 Sudeste 33 Sudeste 0 924.9 0.2 72
2020-01-23 12:00:00 5.2 20 Este 39 Este 0 925.5 1.5 84
2020-01-23 11:00:00 3.1 27 Este 35 Este 0 925.3 1.6 87
2020-01-23 10:00:00 2.4 21 Este 30 Este 0 924.7 1.2 88
2020-01-23 09:00:00 2.2 16 Este 22 Este 0 924 0.5 89
2020-01-23 08:00:00 2.1 17 Este 22 Este 0 923.7 -0.1 91
2020-01-23 07:00:00 1.5 8 Este 18 Este 0 923.5 -0.6 90
2020-01-23 06:00:00 2 8 Este 15 Este 0 923.5 -0.8 91
2020-01-23 05:00:00 3.3 3 Sudeste 24 Este 0 923.8 -0.8 89
2020-01-23 04:00:00 3.6 15 Este 26 Este 0 924.1 -0.9 89
2020-01-23 03:00:00 3.9 19 Este 26 Este 0 924.3 -0.8 88
2020-01-23 02:00:00 4.1 16 Este 26 Este 0 924.6 -0.7 89
2020-01-23 01:00:00 4 13 Este 18 Este 0 925 0 90
2020-01-23 00:00:00 3.6 10 Este 17 Este 0 925.1 0.1 89
2020-01-22 23:00:00 3 11 Este 15 Este 0 925.3 0.5 89
2020-01-22 22:00:00 4.1 12 Sudeste 18 Sur 0 925 0.5 85
2020-01-22 21:00:00 4.5 11 Este 15 Este 0 925 0.6 85
2020-01-22 20:00:00 3.6 13 Este 15 Este 0 924.8 0.4 87
2020-01-22 19:00:00 4.3 11 Este 13 Este 0 924.5 -0.1 79
2020-01-22 18:00:00 7.1 12 Este 28 Este 0 924.4 -0.5 70
2020-01-22 17:00:00 8.7 22 Este 33 Este 0 924.4 -1.4 64
2020-01-22 16:00:00 8.5 24 Este 35 Este 0 924.6 -1.9 66
2020-01-22 15:00:00 9 28 Sudeste 39 Sudeste 0 924.9 -2 67
2020-01-22 14:00:00 7.7 23 Este 33 Este 0 925.8 -0.8 75
2020-01-22 13:00:00 6.2 21 Este 33 Este 0 926.5 0 80
2020-01-22 12:00:00 3.8 21 Este 30 Este 0 926.9 0.4 87
2020-01-22 11:00:00 2.4 22 Este 35 Este 0 926.6 0.4 91
2020-01-22 10:00:00 2.1 27 Este 35 Nordeste 0 926.5 1 92
2020-01-22 09:00:00 1.9 12 Este 28 Nordeste 0 926.5 0.5 93
2020-01-22 08:00:00 2.3 22 Este 39 Este 0 926.2 0.1 93
2020-01-22 07:00:00 2.5 30 Nordeste 41 Este 0 925.5 -0.7 91
2020-01-22 06:00:00 2.7 28 Nordeste 39 Nordeste 0 926 0 91
2020-01-22 05:00:00 2.3 23 Este 41 Este 0 926.1 -0.2 93
2020-01-22 04:00:00 2.3 28 Nordeste 42 Nordeste 0 926.2 -0.6 90
2020-01-22 03:00:00 2.6 28 Nordeste 50 Nordeste 0 926 -0.6 88
2020-01-22 02:00:00 2.9 31 Nordeste 41 Nordeste 0 926.3 -0.1 87
2020-01-22 01:00:00 2.4 24 Este 41 Este 0 926.8 0.6 88
2020-01-22 00:00:00 2.1 24 Este 39 Nordeste 0 926.6 0.9 89
2020-01-21 23:00:00 2.1 24 Nordeste 35 Nordeste 0 926.4 0.6 89
2020-01-21 22:00:00 2 22 Nordeste 39 Este 0 926.2 0.3 89
2020-01-21 21:00:00 2.1 32 Nordeste 46 Nordeste 0 925.7 -0.2 88
2020-01-21 20:00:00 2.1 31 Nordeste 54 Este 0 925.8 0 89
2020-01-21 19:00:00 2.4 36 Nordeste 48 Nordeste 0 925.9 0.1 91
2020-01-21 18:00:00 3.8 32 Nordeste 50 Este 0 925.9 -0.5 79
2020-01-21 17:00:00 4.2 39 Nordeste 58 Nordeste 0 925.8 -1.7 78
2020-01-21 16:00:00 4.7 34 Nordeste 55 Este 0 925.8 -2.3 77
2020-01-21 15:00:00 4.2 33 Nordeste 48 Este 0 926.4 -2.9 77
2020-01-21 14:00:00 3.6 33 Este 52 Este 0 927.5 -2.3 80
2020-01-21 13:00:00 2.9 32 Este 45 Este 0 928.1 -1.7 82
2020-01-21 12:00:00 1.6 26 Este 41 Nordeste 0 929.3 -0.5 82
2020-01-21 11:00:00 0.9 29 Este 41 Este 0.1 929.8 -0.2 82
2020-01-21 10:00:00 -0.1 27 Este 37 Este 0 929.8 0 85
2020-01-21 09:00:00 -1.9 20 Este 30 Este 0 929.8 -0.3 88
2020-01-21 08:00:00 -3.5 5 Sudeste 15 Este 0 930 -0.9 93
2020-01-21 07:00:00 -5.2 5 Sur 9 Sur 0 929.8 -1.7 95
2020-01-21 06:00:00 -6 7 Sudoeste 11 Sudeste 0 930.1 -1.7 92
2020-01-21 05:00:00 -5 9 Sudeste 18 Este 0 930.9 -1.2 91
2020-01-21 04:00:00 -2.1 16 Este 30 Este 0 931.5 -1.4 88
2020-01-21 03:00:00 -1.9 18 Este 35 Este 0 931.8 -1.4 86
2020-01-21 02:00:00 -1.4 24 Este 39 Este 0 932.1 -1 86
2020-01-21 01:00:00 -1.1 28 Este 45 Nordeste 0 932.9 -0.4 88
2020-01-21 00:00:00 -1.4 32 Nordeste 46 Este 0 933.2 0.7 93
2020-01-20 23:00:00 -1.1 28 Este 42 Este 0 933.1 0.6 93
2020-01-20 22:00:00 -0.5 32 Este 46 Este 0 933.3 1.2 87
2020-01-20 21:00:00 0.3 26 Este 42 Este 0 932.5 0.8 70
2020-01-20 20:00:00 0.9 33 Nordeste 55 Nordeste 0 932.5 0.8 66
2020-01-20 19:00:00 1.1 32 Nordeste 48 Este 0 932.1 0.3 67
2020-01-20 18:00:00 2 34 Nordeste 54 Este 0 931.7 -0.3 62
2020-01-20 17:00:00 2.4 33 Este 54 Nordeste 0 931.7 -1 59
2020-01-20 16:00:00 2.8 35 Nordeste 55 Nordeste 0 931.8 -1.9 55
2020-01-20 15:00:00 3.1 38 Nordeste 52 Nordeste 0 932 -2.5 55
2020-01-20 14:00:00 2.4 32 Nordeste 54 Este 0 932.7 -1.8 57
2020-01-20 13:00:00 1.3 36 Este 58 Este 0 933.7 -0.6 60
2020-01-20 12:00:00 1.2 38 Este 59 Nordeste 0 934.5 0.7 62
2020-01-20 11:00:00 0 39 Nordeste 58 Este 0 934.5 0.8 65
2020-01-20 10:00:00 -0.4 37 Nordeste 50 Este 0 934.3 0.8 66
2020-01-20 09:00:00 -2 17 Este 35 Nordeste 0 933.8 -0.4 74
2020-01-20 08:00:00 -1.6 22 Nordeste 42 Nordeste 0 933.7 -1 72
2020-01-20 07:00:00 -1.4 27 Nordeste 50 Nordeste 0 933.5 -1.8 73
2020-01-20 06:00:00 -0.9 28 Nordeste 39 Nordeste 0 934.2 -1.3 70
2020-01-20 05:00:00 -0.8 27 Nordeste 45 Este 0 934.7 -1.3 68
2020-01-20 04:00:00 -0.5 30 Nordeste 45 Nordeste 0 935.3 -1 66
2020-01-20 03:00:00 -0.5 27 Nordeste 48 Nordeste 0 935.5 -0.7 66
2020-01-20 02:00:00 -0.1 27 Nordeste 48 Este 0 936 -0.2 64
2020-01-20 01:00:00 0.2 28 Este 45 Este 0 936.3 0.2 68
2020-01-20 00:00:00 0.2 28 Nordeste 52 Nordeste 0 936.2 0.3 69
2020-01-19 23:00:00 0.5 32 Nordeste 54 Nordeste 0 936.2 0.8 68
2020-01-19 22:00:00 0.7 37 Nordeste 61 Nordeste 0 936.1 1 67
2020-01-19 21:00:00 1 42 Nordeste 76 Nordeste 0 935.9 1.3 65
2020-01-19 20:00:00 1.4 38 Nordeste 68 Nordeste 0 935.4 1.4 61
2020-01-19 19:00:00 2.4 46 Nordeste 72 Nordeste 0 935.1 1.4 57
2020-01-19 18:00:00 3.9 41 Nordeste 68 Nordeste 0 934.6 1 55
2020-01-19 17:00:00 5.6 52 Nordeste 72 Nordeste 0 934 0.6 51
2020-01-19 16:00:00 6.7 52 Nordeste 74 Nordeste 0 933.7 -0.2 54
2020-01-19 15:00:00 7 53 Nordeste 80 Nordeste 0 933.6 0.1 51
2020-01-19 14:00:00 7 54 Nordeste 87 Nordeste 0 933.4 0.1 51
2020-01-19 13:00:00 6.5 60 Nordeste 85 Nordeste 0 933.9 1.2 50
2020-01-19 12:00:00 6.1 50 Nordeste 80 Nordeste 0 933.5 1.5 64
2020-01-19 11:00:00 5.1 46 Nordeste 71 Nordeste 0 933.3 1.9 79
2020-01-19 10:00:00 3.5 28 Nordeste 48 Nordeste 0 932.7 2.4 86
2020-01-19 09:00:00 2.1 6 Norte 22 Norte 0 932 2.1 93
2020-01-19 08:00:00 1.2 6 Noroeste 13 Norte 0 931.4 1.7 98
2020-01-19 07:00:00 0.5 0 Calma 8 Norte 0 930.3 0.5 97
2020-01-19 06:00:00 1.4 4 Noroeste 18 Norte 0 929.9 0.4 97
2020-01-19 05:00:00 2 10 Noroeste 15 Noroeste 0 929.7 0.4 97
2020-01-19 04:00:00 2.6 8 Noroeste 17 Noroeste 0 929.8 0.2 96
2020-01-19 03:00:00 3 11 Oeste 22 Noroeste 0 929.5 0 95
2020-01-19 02:00:00 4.8 16 Noroeste 39 Noroeste 0.2 929.3 -0.3 93
2020-01-19 01:00:00 4.7 8 Noroeste 15 Noroeste 1.2 929.6 0.3 94
2020-01-19 00:00:00 4.9 12 Oeste 21 Oeste 0 929.5 0.5 89
2020-01-18 23:00:00 4.9 9 Oeste 24 Oeste 0 929.6 0.9 90
2020-01-18 22:00:00 5 10 Oeste 21 Oeste 0 929.3 0.9 90
2020-01-18 21:00:00 6.4 17 Oeste 50 Noroeste 0.7 929 1.1 91
2020-01-18 20:00:00 9 27 Oeste 55 Oeste 0 928.7 1.3 75
2020-01-18 19:00:00 10.1 37 Oeste 61 Oeste 0 928.4 0.1 78
2020-01-18 18:00:00 10.9 41 Oeste 61 Sudoeste 0 927.9 -0.9 72
2020-01-18 17:00:00 11.8 37 Sudoeste 52 Sudoeste 0 927.4 -2.6 76
2020-01-18 16:00:00 11.6 38 Sudoeste 54 Sudoeste 0 928.3 -3 79
2020-01-18 15:00:00 12.3 40 Sudoeste 55 Sudoeste 0 928.8 -3.5 75
2020-01-18 14:00:00 12.1 40 Sudoeste 54 Sudoeste 0 930 -2.6 75
2020-01-18 13:00:00 11.7 40 Sudoeste 54 Sudoeste 0 931.3 -1.5 80
2020-01-18 12:00:00 10 39 Sudoeste 58 Sudoeste 0 932.3 -1 85
2020-01-18 11:00:00 8.6 41 Sudoeste 55 Sudoeste 0 932.6 -1.1 89
2020-01-18 10:00:00 7.3 4 Sur 22 Sur 0.2 932.8 -1.6 90
2020-01-18 09:00:00 6.7 14 Sur 22 Sur 0 933.3 -1.4 90
2020-01-18 08:00:00 5.8 12 Sur 21 Sur 0.7 933.7 -2.2 93
2020-01-18 07:00:00 5.8 14 Sur 24 Sur 1.1 934.4 -2.1 95
2020-01-18 06:00:00 5.4 21 Sur 28 Sur 0.8 934.7 -1.9 95
2020-01-18 05:00:00 5 8 Sur 13 Sur 0.4 935.9 -0.8 93
2020-01-18 04:00:00 3.8 5 Sur 8 Sur 0 936.5 -0.9 93
2020-01-18 03:00:00 3.8 0 Calma 9 Sur 0 936.6 -1.1 91
2020-01-18 02:00:00 3.8 8 Sur 11 Sur 0 936.7 -0.8 92
2020-01-18 01:00:00 3.7 4 Sudeste 9 Este 0 937.4 -0.5 91
2020-01-18 00:00:00 3.4 0 Calma 9 Oeste 0 937.7 -0.8 91
2020-01-17 23:00:00 3.8 7 Este 13 Sudoeste 0 937.5 -1.4 90
2020-01-17 22:00:00 4 10 Este -- -- 0 937.9 -0.3 86
2020-01-17 21:00:00 4.7 8 Sudeste 9 Sur 0 938.5 0.6 83
2020-01-17 20:00:00 5.5 0 Calma 13 Norte 0 938.9 1 80
2020-01-17 19:00:00 6.4 4 Norte 9 Norte 0 938.2 0.6 73
2020-01-17 18:00:00 7.5 5 Noroeste 22 Oeste 0 937.9 0.7 67
2020-01-17 17:00:00 9.9 13 Noroeste 32 Oeste 0 937.9 0.1 60
2020-01-17 16:00:00 10.1 21 Oeste 37 Noroeste 0 937.6 -0.5 57
2020-01-17 15:00:00 9.6 23 Oeste 35 Oeste 0 937.2 -1.1 59
2020-01-17 14:00:00 9.9 22 Oeste 35 Oeste 0 937.8 0 62
2020-01-17 13:00:00 9.2 25 Oeste 33 Oeste 0 938.1 0.8 69
2020-01-17 12:00:00 8.8 19 Oeste 32 Oeste 0 938.3 1.9 78
2020-01-17 11:00:00 7.6 20 Oeste 32 Oeste 0 937.8 2.5 85
2020-01-17 10:00:00 7 16 Oeste 24 Oeste 0 937.3 3.2 90
2020-01-17 09:00:00 6.4 15 Oeste 30 Oeste 0.1 936.4 2.7 92
2020-01-17 08:00:00 6.4 19 Oeste 26 Oeste 0 935.3 2 92
2020-01-17 07:00:00 6.5 17 Sudoeste 32 Sudoeste 0 934.1 0.8 88
2020-01-17 06:00:00 6.3 23 Sudoeste 32 Sudoeste 0 933.7 0.6 88
2020-01-17 05:00:00 5.7 23 Sudoeste 32 Sudoeste 0 933.3 0.4 88
2020-01-17 04:00:00 5.7 19 Sudoeste 30 Sudoeste 0 933.3 0.8 88
2020-01-17 03:00:00 6 19 Sudoeste 26 Sudoeste 0 933.1 0.8 90
2020-01-17 02:00:00 5.8 14 Oeste 33 Oeste 0 932.9 0.8 90
2020-01-17 01:00:00 6.9 25 Sudoeste 35 Oeste 0 932.5 1 87
2020-01-17 00:00:00 7.9 27 Sudoeste 55 Sudoeste 0 932.3 1.3 84
2020-01-16 23:00:00 8.4 38 Sudoeste 50 Sudoeste 0 932.1 1.1 80
2020-01-16 22:00:00 8.2 24 Sudoeste 52 Sudoeste 0 931.5 1 75
2020-01-16 21:00:00 8.9 36 Sudoeste 55 Sudoeste 0 931 1.4 71
2020-01-16 20:00:00 9.4 31 Sudoeste 45 Sudoeste 0 931 0.9 63
2020-01-16 19:00:00 8.8 30 Sudoeste 48 Sudoeste 0 930.5 0.2 64
2020-01-16 18:00:00 9.5 38 Sudoeste 52 Sudoeste 0 929.6 -1.5 67
2020-01-16 17:00:00 10.2 33 Sudoeste 50 Sudoeste 0 930.1 -1.3 68
2020-01-16 16:00:00 9.9 33 Sudoeste 54 Sudoeste 0 930.3 -2.2 65
2020-01-16 15:00:00 10.3 40 Sudoeste 54 Sudoeste 0 931.1 -1.9 64
2020-01-16 14:00:00 11.6 34 Sudoeste 52 Oeste 0 931.4 -1.6 63
2020-01-16 13:00:00 11.5 37 Sudoeste 48 Sudoeste 0 932.5 -0.1 64
2020-01-16 12:00:00 10.8 30 Sudoeste 46 Sudoeste 0 933 0.6 70
2020-01-16 11:00:00 10.4 30 Sudoeste 52 Sudoeste 0 933 1.2 73
2020-01-16 10:00:00 9.6 21 Sudoeste 42 Sudoeste 0 932.6 0.9 83
2020-01-16 09:00:00 9.2 28 Sudoeste 41 Sudoeste 0 932.4 0.8 89
2020-01-16 08:00:00 9.1 18 Sudoeste 30 Sudoeste 0 931.8 -0.1 90
2020-01-16 07:00:00 9.1 17 Sudoeste 26 Oeste 0 931.7 -0.4 90
2020-01-16 06:00:00 8.8 10 Sudoeste 26 Sudoeste 0 931.6 -0.6 91
2020-01-16 05:00:00 7 14 Sudoeste 28 Sudoeste 0 931.9 -0.5 93
2020-01-16 04:00:00 7.2 11 Sudoeste 26 Sudoeste 0 932.1 -0.3 92
2020-01-16 03:00:00 8.1 17 Sudoeste 28 Oeste 0 932.2 0 91
2020-01-16 02:00:00 8.2 24 Sudoeste 35 Sudoeste 0 932.4 -0.1 90
2020-01-16 01:00:00 8.6 22 Sudoeste 35 Sudoeste 0 932.4 0.1 89
2020-01-16 00:00:00 8.5 16 Sudoeste 24 Sudoeste 0 932.2 0 88
2020-01-15 23:00:00 8.5 2 Oeste 17 Sur 0 932.5 0.5 89
2020-01-15 22:00:00 8.1 9 Sudeste 15 Sudeste 0 932.3 0.8 90
2020-01-15 21:00:00 8.5 12 Sur 28 Sudoeste 0 932.2 1.2 88
2020-01-15 20:00:00 8 16 Sudoeste 32 Sudoeste 0 932 1.6 91
2020-01-15 19:00:00 8.9 19 Sudoeste 37 Oeste 0 931.5 1.3 90
2020-01-15 18:00:00 9.2 25 Sudoeste 41 Sudoeste 0 931 1 88
2020-01-15 17:00:00 9.6 30 Sudoeste 45 Sudoeste 0 930.4 0.3 87
2020-01-15 16:00:00 10.7 28 Sudoeste 42 Sudoeste 0 930.2 -0.3 81
2020-01-15 15:00:00 10.1 33 Sudoeste 45 Sudoeste 0 930 -1.2 85
2020-01-15 14:00:00 8.9 25 Sudoeste 35 Sudoeste 0 930.1 0.5 92
2020-01-15 13:00:00 6.7 5 Sudeste 13 Norte 0.1 930.5 2.1 92
2020-01-15 12:00:00 5.5 13 Norte 39 Noroeste 2 931.2 3.3 94
2020-01-15 11:00:00 8.1 30 Sudoeste 45 Sudoeste 0 929.6 2.4 86
2020-01-15 10:00:00 7.4 28 Sur 45 Sudoeste 0 928.4 2.4 87
2020-01-15 09:00:00 7.1 29 Sudoeste 46 Sudoeste 0 927.9 1.5 84
2020-01-15 08:00:00 7.5 31 Sudoeste 54 Sudoeste 0 927.2 0.4 83
2020-01-15 07:00:00 7.2 42 Sudoeste 58 Sudoeste 0 926 -1.1 80
2020-01-15 06:00:00 7.2 26 Sudoeste 41 Sudoeste 0 926.4 -0.8 79
2020-01-15 05:00:00 7.3 33 Sudoeste 54 Sudoeste 0 926.8 -0.5 81
2020-01-15 04:00:00 7.4 40 Sudoeste 52 Sudoeste 0 927.1 -0.2 79
2020-01-15 03:00:00 7.4 30 Sudoeste 52 Sudoeste 0 927.2 -0.3 81
2020-01-15 02:00:00 6.9 27 Sudoeste 52 Sudoeste 0 927.3 -0.2 83
2020-01-15 01:00:00 7.4 31 Sudoeste 48 Sudoeste 0 927.3 -0.2 84
2020-01-15 00:00:00 7.4 31 Sudoeste 45 Sudoeste 0 927.5 -0.2 87
2020-01-14 23:00:00 6.5 24 Sudoeste 42 Sudoeste 0 927.5 -0.3 90
2020-01-14 22:00:00 5.5 24 Sudoeste 35 Sudoeste 0 927.5 -0.3 90
2020-01-14 21:00:00 5.9 26 Sudoeste 41 Sudoeste 0 927.7 0.1 86
2020-01-14 20:00:00 6.6 26 Sudoeste 37 Sudoeste 0 927.8 0.4 83
2020-01-14 19:00:00 6.4 15 Sudoeste 30 Sudoeste 0 927.8 0.4 81
2020-01-14 18:00:00 6.4 21 Sudoeste 46 Sudoeste 0 927.6 -0.3 81
2020-01-14 17:00:00 7.8 28 Sudoeste 50 Sudoeste 0 927.4 -1 76
2020-01-14 16:00:00 9.2 36 Sudoeste 50 Sudoeste 0 927.4 -1.9 70
2020-01-14 15:00:00 8.3 27 Sudoeste 37 Sudoeste 0 927.9 -1.8 75
2020-01-14 14:00:00 7.8 24 Sudoeste 32 Sudoeste 0 928.4 -1.2 73
2020-01-14 13:00:00 6.3 21 Sur 33 Sur 0 929.3 0 76
2020-01-14 12:00:00 6.7 23 Sur 33 Sur 0 929.7 0.6 75
2020-01-14 11:00:00 4.5 17 Sur 26 Sur 0 929.6 0.5 84
2020-01-14 10:00:00 1.5 10 Sur 15 Sur 0 929.3 0.3 92
2020-01-14 09:00:00 0.2 8 Sur 15 Sur 0 929.1 -0.1 95
2020-01-14 08:00:00 -1.8 7 Este 18 Sur 0 929.1 -0.4 95
2020-01-14 07:00:00 -3 16 Sur 18 Sur 0 929 -0.8 96
2020-01-14 06:00:00 -4.1 10 Sudoeste 17 Sudoeste 0 929.2 -0.4 93
2020-01-14 05:00:00 -4 12 Sur 13 Sur 0 929.5 0.1 94
2020-01-14 04:00:00 -4.2 3 Sudeste 8 Este 0 929.8 -0.6 92
2020-01-14 03:00:00 -3.6 3 Este 15 Sur 0 929.6 -1.1 90
2020-01-14 02:00:00 -2.6 11 Sur 15 Sur 0 929.4 -1.6 88
2020-01-14 01:00:00 -2 12 Sudoeste 13 Sudoeste 0 930.4 -0.2 85
2020-01-14 00:00:00 -1.4 7 Oeste 11 Oeste 0 930.7 0.2 85
2020-01-13 23:00:00 -1.7 6 Oeste 11 Oeste 0 931 1.3 82
2020-01-13 22:00:00 -0.5 7 Sudoeste 17 Oeste 0 930.6 1 77
2020-01-13 21:00:00 0.5 9 Noroeste 21 Sudoeste 0 930.5 1.1 71
2020-01-13 20:00:00 2.3 0 Calma 15 Oeste 0 929.7 0.1 61
2020-01-13 19:00:00 2.5 6 Oeste 18 Sudoeste 0 929.6 -0.5 70
2020-01-13 18:00:00 7.2 14 Sur 21 Sur 0 929.4 -1.2 57
2020-01-13 17:00:00 10 15 Sudoeste 22 Sudoeste 0 929.6 -1.9 47
2020-01-13 16:00:00 10.6 14 Sudoeste 21 Sudoeste 0 930.1 -2.5 43
2020-01-13 15:00:00 9.4 3 Oeste 11 Oeste 0 930.6 -2.8 59
2020-01-13 14:00:00 7.5 5 Oeste 13 Sudoeste 0 931.5 -1.9 67
2020-01-13 13:00:00 4.8 5 Sudoeste 11 Sudoeste 0 932.6 -0.3 80
2020-01-13 12:00:00 0.8 6 Sur 9 Sur 0 933.4 0.7 98
2020-01-13 11:00:00 -2.3 0 Calma 4 Nordeste 0 933.4 1 97
2020-01-13 10:00:00 -4.3 0 Calma 5 Sur 0 932.9 0.3 96
2020-01-13 09:00:00 -5.6 3 Noroeste 5 Norte 0 932.7 -0.4 95
2020-01-13 08:00:00 -5.4 0 Calma 5 Sudeste 0 932.4 -1.5 95
2020-01-13 07:00:00 -5 4 Este 5 Sudeste 0 932.6 -1.7 96
2020-01-13 06:00:00 -4.6 4 Sudeste 9 Sudeste 0 933.1 -1.7 96
2020-01-13 05:00:00 -4.2 5 Este 11 Sudeste 0 933.9 -1.3 96
2020-01-13 04:00:00 -3.9 8 Sudeste 13 Sudeste 0 934.3 -1.4 97
2020-01-13 03:00:00 -3.4 6 Sudeste 11 Sudeste 0 934.8 -1.2 98
2020-01-13 02:00:00 -3.8 2 Sudeste 5 Sudeste 0 935.2 -0.9 98
2020-01-13 01:00:00 -4 0 Calma 4 Este 0 935.7 -1 98
2020-01-13 00:00:00 -3.9 0 Calma 5 Nordeste 0 936 -1.1 98
2020-01-12 23:00:00 -3.4 4 Sudeste 11 Sudeste 0 936.1 -1.5 98
2020-01-12 22:00:00 -2.7 8 Sudeste 13 Este 0 936.7 -0.4 98
2020-01-12 21:00:00 -2.3 12 Este 15 Este 0 937.1 0.4 97
2020-01-12 20:00:00 -2 8 Este 13 Este 0 937.6 0.9 96
2020-01-12 19:00:00 -1.5 8 Sudeste 11 Sudeste 0 937.1 0.5 91
2020-01-12 18:00:00 3.1 6 Este 8 Este 0 936.7 -0.4 78
2020-01-12 17:00:00 3.5 8 Este 17 Este 0 936.7 -1 77
2020-01-12 16:00:00 3.6 13 Este 18 Este 0 936.6 -2.1 79
2020-01-12 15:00:00 3.8 13 Este 18 Este 0 937.1 -2.2 78
2020-01-12 14:00:00 4.8 8 Este 13 Este 0 937.7 -1.2 80
2020-01-12 13:00:00 3.4 9 Norte 13 Norte 0 938.7 0.4 88
2020-01-12 12:00:00 1.3 0 Calma 8 Nordeste 0 939.3 1.3 97
2020-01-12 11:00:00 -0.9 2 Este 8 Norte 0 938.9 0.7 98
2020-01-12 10:00:00 -4.1 0 Calma -- -- 0 938.3 0.3 96
2020-01-12 09:00:00 -6.4 0 Calma -- -- 0 938 0.2 94
2020-01-12 08:00:00 -6.6 0 Calma 5 Sudeste 0 938.2 0.2 94
2020-01-12 07:00:00 -5.9 0 Calma 4 Este 0 938 -0.4 95
2020-01-12 06:00:00 -5.2 0 Calma 5 Norte 0 937.8 -0.6 96
2020-01-12 05:00:00 -4.3 0 Calma 5 Sudeste 0 938 -0.3 96
2020-01-12 04:00:00 -3.6 5 Sudeste 9 Sur 0 938.4 0 98
2020-01-12 03:00:00 -3.4 0 Calma 11 Sudeste 0 938.4 -0.1 98
2020-01-12 02:00:00 -2.9 5 Sudeste 9 Sudeste 0 938.3 -0.3 98
2020-01-12 01:00:00 -2.5 5 Sur 11 Sudeste 0 938.4 -0.2 98
2020-01-12 00:00:00 -2.2 5 Sudeste 11 Sudeste 0 938.5 -0.3 98
2020-01-11 23:00:00 -1.9 4 Sudeste 11 Sudeste 0 938.6 0 98
2020-01-11 22:00:00 -1.1 5 Este 13 Sudeste 0 938.6 0.2 98
2020-01-11 21:00:00 -1.1 5 Este 13 Sudeste 0 938.8 1.1 98
2020-01-11 20:00:00 -0.3 8 Este 13 Este 0 938.6 1 97
2020-01-11 19:00:00 0.2 8 Este 15 Este 0 938.4 0.9 96
2020-01-11 18:00:00 2.1 11 Este 15 Este 0 937.7 0 85
2020-01-11 17:00:00 4.6 10 Este 15 Este 0 937.6 -1 78
2020-01-11 16:00:00 5.3 8 Este 15 Este 0 937.5 -2 78
2020-01-11 15:00:00 3.6 8 Este 13 Este 0 937.7 -2.4 88
2020-01-11 14:00:00 1.7 7 Este 13 Este 0 938.6 -1.4 97
2020-01-11 13:00:00 0.9 6 Este 15 Este 0 939.5 0 99
2020-01-11 12:00:00 0.5 9 Este 15 Este 0 940.1 1 99
2020-01-11 11:00:00 -0.1 9 Este 13 Este 0 940 1 99
2020-01-11 10:00:00 -2 0 Calma 5 Norte 0 939.5 0.7 98
2020-01-11 09:00:00 -3.6 0 Calma 5 Norte 0 939.1 0.4 97
2020-01-11 08:00:00 -4.8 5 Sur 8 Sur 0 939 0.4 96
2020-01-11 07:00:00 -4.9 2 Sur 9 Noroeste 0 938.8 -0.2 96
2020-01-11 06:00:00 -5.4 5 Oeste -- -- -- 938.7 -0.4 96
2020-01-11 05:00:00 -4.3 6 Este 11 Este 0 938.6 -0.5 96
2020-01-11 04:00:00 -4.4 9 Este 9 Este 0 939 -0.2 95
2020-01-11 03:00:00 -3.5 7 Sur 11 Sur 0 939.1 -0.2 94
2020-01-11 02:00:00 -2.6 0 Calma 5 Oeste 0 939.1 0.1 94
2020-01-11 01:00:00 -1 4 Este 15 Sur 0 939.2 0.3 94
2020-01-11 00:00:00 -1.2 5 Este 13 Este 0 939.3 0.7 93
2020-01-10 23:00:00 -1.5 3 Sudeste 8 Este 0 939 0.5 94
2020-01-10 22:00:00 -1 0 Calma 5 Sudoeste 0 938.9 0.9 90
2020-01-10 21:00:00 -0.1 0 Calma 5 Sur 0 938.6 0.8 90
2020-01-10 20:00:00 1.5 0 Calma 5 Sur 0 938.5 0.9 86
2020-01-10 19:00:00 3 5 Sudeste 13 Este 0 938 0.9 80
2020-01-10 18:00:00 5.1 12 Nordeste 21 Este 0 937.8 0.6 72
2020-01-10 17:00:00 7.1 14 Este 26 Este 0 937.6 0.7 66
2020-01-10 16:00:00 7.2 18 Este 26 Este 0 937.1 -0.5 63
2020-01-10 15:00:00 6.8 14 Este 32 Este 0 937.2 -1.1 66
2020-01-10 14:00:00 7.2 18 Este 28 Nordeste 0 936.9 -0.8 66
2020-01-10 13:00:00 6.2 18 Nordeste 30 Nordeste 0 937.6 0.5 68
2020-01-10 12:00:00 4.4 6 Nordeste 15 Este 0 938.3 1.6 82
2020-01-10 11:00:00 0.3 0 Calma 4 Norte 0 937.7 1.3 98
2020-01-10 10:00:00 -2.2 0 Calma 9 Norte 0 937.1 1.3 97
2020-01-10 09:00:00 -4.9 2 Norte 5 Nordeste 0 936.7 1.5 96
2020-01-10 08:00:00 -4.4 3 Este 9 Este 0 936.4 1 97
2020-01-10 07:00:00 -4 0 Calma 11 Sudeste 0 935.8 0.3 96
2020-01-10 06:00:00 -2.4 0 Calma 8 Oeste 0 935.2 0 95
2020-01-10 05:00:00 -1.9 4 Sudoeste 11 Oeste 0 935.4 0.3 95
2020-01-10 04:00:00 -0.5 3 Sudoeste 9 Oeste 0 935.5 0.5 94
2020-01-10 03:00:00 0.2 3 Oeste 11 Noroeste 0 935.2 0 93
2020-01-10 02:00:00 0.5 9 Oeste 18 Oeste 0 935.1 0.3 91
2020-01-10 01:00:00 3.1 12 Oeste 15 Oeste 0 935 0.9 95
2020-01-10 00:00:00 4.4 8 Oeste 15 Oeste 0 935.2 1.1 93
2020-01-09 23:00:00 4.4 10 Oeste 18 Oeste 0 934.8 1.1 94
2020-01-09 22:00:00 4.2 10 Oeste 17 Oeste 0 934.1 0.8 89
2020-01-09 21:00:00 8 13 Oeste 26 Oeste 0 934.1 1.2 83
2020-01-09 20:00:00 8.8 19 Noroeste 39 Noroeste 0 933.7 1.1 82
2020-01-09 19:00:00 10 13 Oeste 22 Oeste 0 933.3 1.4 87
2020-01-09 18:00:00 9.8 13 Oeste 33 Oeste 0 932.9 0.3 87
2020-01-09 17:00:00 11.6 24 Oeste 42 Oeste 0 932.6 -1.3 79
2020-01-09 16:00:00 13 23 Sudoeste 33 Oeste 0 931.9 -2.9 74
2020-01-09 15:00:00 12.2 21 Sudoeste 30 Sudoeste 0 932.6 -2.9 80
2020-01-09 14:00:00 9.9 18 Oeste 30 Oeste 0 933.9 -1.4 88
2020-01-09 13:00:00 7.9 8 Noroeste 13 Noroeste 0 934.8 -0.2 85
2020-01-09 12:00:00 5.7 0 Calma 4 Noroeste 0 935.5 0.7 87
2020-01-09 11:00:00 2.7 0 Calma 8 Sudeste 0 935.3 0.9 93
2020-01-09 10:00:00 -0.1 4 Nordeste 9 Sur 0 935 0.6 96
2020-01-09 09:00:00 -3.4 5 Sudeste 8 Sur 0 934.8 0.4 96
2020-01-09 08:00:00 -3.2 6 Este 9 Norte 0 934.4 -0.2 96
2020-01-09 07:00:00 -3.2 3 Este 11 Sur 0 934.4 -0.5 96
2020-01-09 06:00:00 -2.6 3 Oeste 9 Sudeste 0 934.4 -0.7 96
2020-01-09 05:00:00 -2.3 2 Sudeste 11 Norte 0 934.6 -0.9 97
2020-01-09 04:00:00 -2 4 Este 8 Este 0 934.9 -1.1 97
2020-01-09 03:00:00 -1.6 4 Sudeste 8 Este 0 935.1 -1.1 96
2020-01-09 02:00:00 -1 4 Sur 8 Sur 0 935.5 -0.7 96
2020-01-09 01:00:00 -0.7 0 Calma 2 Oeste 0 936 -0.2 96
2020-01-09 00:00:00 -0.5 0 Calma 9 Oeste 0 936.2 0.2 95
2020-01-08 23:00:00 -0.1 7 Noroeste 9 Noroeste 0 936.2 0 96
2020-01-08 22:00:00 0.3 8 Oeste -- -- 0 936.2 0.1 95
2020-01-08 21:00:00 1.1 3 Sur -- -- 0 936 0.1 92
2020-01-08 20:00:00 2.6 5 Este 9 Este 0 936.2 0.5 88
2020-01-08 19:00:00 4.3 8 Sudeste 11 Este 0 936.1 0.4 82
2020-01-08 18:00:00 8.4 9 Este 13 Este 0 935.9 0 66
2020-01-08 17:00:00 10.7 11 Este 13 Este 0 935.7 -0.8 55
2020-01-08 16:00:00 11.3 7 Nordeste 11 Nordeste 0 935.7 -1.9 47
2020-01-08 15:00:00 9.5 6 Este 13 Este 0 935.9 -2.8 58
2020-01-08 14:00:00 5.8 7 Este 11 Este 0 936.5 -2.4 85
2020-01-08 13:00:00 1.5 4 Oeste 8 Noroeste 0 937.6 -1.2 99
2020-01-08 12:00:00 -0.9 5 Este 9 Este 0 938.7 0.4 98
2020-01-08 11:00:00 -2.2 5 Este 8 Este 0 938.9 0.8 98
2020-01-08 10:00:00 -2.9 5 Este 8 Este 0 938.8 0.9 97
2020-01-08 09:00:00 -2.9 5 Este 8 Este 0 938.3 0.4 97
2020-01-08 08:00:00 -3.4 5 Este 9 Este 0 938.1 0.5 97
2020-01-08 07:00:00 -5.2 4 Sur 5 Sur 0 937.9 -0.2 95
2020-01-08 06:00:00 -5.9 0 Calma 4 Noroeste 0 937.9 -0.7 95
2020-01-08 05:00:00 -5.3 0 Calma 4 Sudeste 0 937.6 -1.2 95
2020-01-08 04:00:00 -5.2 0 Calma 5 Este 0 938.1 -1.2 95
2020-01-08 03:00:00 -4.7 5 Este 8 Este 0 938.6 -0.9 96
2020-01-08 02:00:00 -4.2 4 Sudeste 5 Sudeste 0 938.8 -0.7 98
2020-01-08 01:00:00 -3.6 5 Sudeste 8 Sudeste 0 939.3 -0.2 98
2020-01-08 00:00:00 -3 5 Sudeste 9 Este 0 939.5 0.1 98
2020-01-07 23:00:00 -2.5 6 Este 9 Este 0 939.5 0.4 98
2020-01-07 22:00:00 -2.1 8 Sudeste 13 Sudeste 0 939.5 0.5 98
2020-01-07 21:00:00 -2.2 8 Sudeste 11 Este 0 939.4 0.7 96
2020-01-07 20:00:00 -1.5 6 Este 9 Este 0 939.1 0.4 96
2020-01-07 19:00:00 -0.7 5 Este 11 Este 0 939 0.4 95
2020-01-07 18:00:00 2.7 9 Este 13 Este 0 938.7 -0.2 85
2020-01-07 17:00:00 6 8 Este 13 Este 0 938.7 -1.1 78
2020-01-07 16:00:00 5.2 4 Este 11 Este 0 938.6 -1.5 83
2020-01-07 15:00:00 3 8 Nordeste 15 Este 0 938.9 -1.9 94
2020-01-07 14:00:00 1.3 7 Este 13 Nordeste 0 939.8 -1 99
2020-01-07 13:00:00 -0.1 6 Sudeste 11 Sudeste 0 940.1 -0.4 99
2020-01-07 12:00:00 -1.3 5 Sur 11 Sudeste 0 940.8 0.8 99
2020-01-07 11:00:00 -1.8 9 Sudeste 13 Sudeste 0 940.8 1.3 99
2020-01-07 10:00:00 -2.4 8 Este 13 Este 0 940.5 1.3 99
2020-01-07 09:00:00 -2.8 6 Nordeste 13 Nordeste 0 940 0.6 99
2020-01-07 08:00:00 -2.2 7 Este 13 Este 0 939.5 0 99
2020-01-07 07:00:00 -2.2 9 Sudeste 13 Sudeste 0 939.2 -0.3 99
2020-01-07 06:00:00 -1.9 4 Este 11 Este 0 939.4 0 99
2020-01-07 05:00:00 -1.7 6 Norte 13 Este 0 939.5 0.4 99
2020-01-07 04:00:00 -1.2 8 Este 11 Este 0 939.5 0.8 99
2020-01-07 03:00:00 -1.7 4 Noroeste 8 Norte 0 939.4 0.4 99
2020-01-07 02:00:00 -1.9 6 Este 9 Este 0 939.1 0.3 98
2020-01-07 01:00:00 -1.3 3 Sudoeste 9 Este 0 938.7 -0.1 98
2020-01-07 00:00:00 -0.7 8 Este 13 Este 0 939 0.7 98
2020-01-06 23:00:00 -0.1 9 Este 13 Sudeste 0 938.8 0.8 98
2020-01-06 22:00:00 0.4 10 Este 17 Este 0 938.8 1.5 98
2020-01-06 21:00:00 0.2 9 Este 13 Este 0 938.3 1.7 97
2020-01-06 20:00:00 0.5 8 Este 13 Sudeste 0 938 1.8 93
2020-01-06 19:00:00 2.4 10 Sudeste 13 Sudeste 0 937.3 1.7 89
2020-01-06 18:00:00 6.8 7 Este 11 Este 0 936.6 1.1 78
2020-01-06 17:00:00 8.6 9 Norte 17 Noroeste 0 936.2 0.4 62
2020-01-06 16:00:00 9.5 10 Norte 17 Norte 0 935.6 -1.1 64
2020-01-06 15:00:00 8.9 6 Noroeste 11 Noroeste 0 935.5 -2.3 70
2020-01-06 14:00:00 4.6 0 Calma 8 Noroeste 0 935.8 -2.1 96
2020-01-06 13:00:00 2.3 2 Sur 11 Sur 0 936.7 -0.5 99
2020-01-06 12:00:00 -0.8 3 Sur 8 Sur 0 937.8 1.1 99
2020-01-06 11:00:00 -2.4 5 Norte 9 Norte 0 937.9 1.6 98
2020-01-06 10:00:00 -2.8 4 Este 11 Sudeste 0 937.2 1.3 98